Time;durP1;ratioP1;P1;durP2;ratioP2;P2;SDS_P1;SDS_P2;PMS_P1;PMS_P2;Temp;Humidity;BMP_temperature;BMP_pressure;BME280_temperature;BME280_humidity;BME280_pressure;Samples;Min_cycle;Max_cycle;Signal;HPM_P1;HPM_P2
2024/01/20 00:00:39;;;;;;;24.83;10.68;;;;;;;;;;5037564;28;20049;-59
2024/01/20 00:03:06;;;;;;;27.25;9.45;;;;;;;;;;5030565;28;20053;-60
2024/01/20 00:05:32;;;;;;;26.60;10.15;;;;;;;;;;5027980;28;20049;-60
2024/01/20 00:08:01;;;;;;;27.02;9.18;;;;;;;;;;5032078;28;20056;-59
2024/01/20 00:10:28;;;;;;;26.42;8.60;;;;;;;;;;5033687;28;20033;-59
2024/01/20 00:12:56;;;;;;;27.20;9.80;;;;;;;;;;5045403;28;20065;-59
2024/01/20 00:15:23;;;;;;;25.65;9.68;;;;;;;;;;5016596;28;20041;-58
2024/01/20 00:17:51;;;;;;;30.50;10.40;;;;;;;;;;5016033;28;20215;-59
2024/01/20 00:20:18;;;;;;;27.35;9.85;;;;;;;;;;5018527;28;20057;-59
2024/01/20 00:22:48;;;;;;;28.67;10.55;;;;;;;;;;5015870;28;20057;-60
2024/01/20 00:25:20;;;;;;;27.58;9.98;;;;;;;;;;5017081;28;20118;-59
2024/01/20 00:27:50;;;;;;;36.08;12.07;;;;;;;;;;5017737;28;20064;-60
2024/01/20 00:30:20;;;;;;;29.58;10.30;;;;;;;;;;5018455;28;20053;-60
2024/01/20 00:32:47;;;;;;;24.98;9.15;;;;;;;;;;5020623;28;20061;-60
2024/01/20 00:35:17;;;;;;;27.83;8.95;;;;;;;;;;5026143;28;20042;-60
2024/01/20 00:37:44;;;;;;;25.30;9.00;;;;;;;;;;5026180;28;20307;-60
2024/01/20 00:40:12;;;;;;;29.95;8.35;;;;;;;;;;5024639;28;20283;-60
2024/01/20 00:42:39;;;;;;;21.73;8.00;;;;;;;;;;5017163;28;20077;-60
2024/01/20 00:45:07;;;;;;;27.08;9.27;;;;;;;;;;5012010;28;20061;-59
2024/01/20 00:47:36;;;;;;;28.00;9.40;;;;;;;;;;5019100;28;20049;-58
2024/01/20 00:50:04;;;;;;;25.85;9.23;;;;;;;;;;5011110;28;20054;-57
2024/01/20 00:52:31;;;;;;;29.02;9.52;;;;;;;;;;5027391;28;20061;-58
2024/01/20 00:54:58;;;;;;;22.77;8.40;;;;;;;;;;5013473;28;20053;-57
2024/01/20 00:57:25;;;;;;;28.42;10.05;;;;;;;;;;5013718;28;20061;-59
2024/01/20 00:59:53;;;;;;;24.00;7.38;;;;;;;;;;5027916;28;20049;-59
2024/01/20 01:02:23;;;;;;;20.58;7.40;;;;;;;;;;5028315;28;20061;-59
2024/01/20 01:04:51;;;;;;;30.65;8.82;;;;;;;;;;5033616;28;20045;-57
2024/01/20 01:07:20;;;;;;;29.88;9.20;;;;;;;;;;5015189;28;20132;-59
2024/01/20 01:09:50;;;;;;;21.50;7.40;;;;;;;;;;5016826;28;20045;-57
2024/01/20 01:12:19;;;;;;;29.83;8.18;;;;;;;;;;5016322;28;20049;-59
2024/01/20 01:14:48;;;;;;;19.02;7.63;;;;;;;;;;5017996;28;20046;-58
2024/01/20 01:17:16;;;;;;;28.25;9.48;;;;;;;;;;5011671;28;20049;-58
2024/01/20 01:19:46;;;;;;;26.38;9.77;;;;;;;;;;5021063;28;20050;-61
2024/01/20 01:22:15;;;;;;;21.13;7.72;;;;;;;;;;5014643;28;20061;-60
2024/01/20 01:24:46;;;;;;;23.17;7.68;;;;;;;;;;5014640;28;20133;-61
2024/01/20 01:27:17;;;;;;;25.52;6.97;;;;;;;;;;4987265;28;20077;-61
2024/01/20 01:29:44;;;;;;;29.45;11.23;;;;;;;;;;5038184;28;20077;-57
2024/01/20 01:32:14;;;;;;;30.63;8.98;;;;;;;;;;5013324;28;20057;-58
2024/01/20 01:34:41;;;;;;;25.25;9.52;;;;;;;;;;5028096;28;20048;-59
2024/01/20 01:37:10;;;;;;;30.50;9.27;;;;;;;;;;5010550;28;20049;-59
2024/01/20 01:39:38;;;;;;;26.55;8.65;;;;;;;;;;5032423;28;20041;-59
2024/01/20 01:42:05;;;;;;;24.20;8.05;;;;;;;;;;5010422;28;20046;-59
2024/01/20 01:44:32;;;;;;;28.75;9.88;;;;;;;;;;5015432;28;20049;-58
2024/01/20 01:46:59;;;;;;;25.55;7.22;;;;;;;;;;5029394;28;20081;-59
2024/01/20 01:49:26;;;;;;;36.25;14.07;;;;;;;;;;5038344;28;20112;-59
2024/01/20 01:51:56;;;;;;;24.00;9.23;;;;;;;;;;5028692;28;20049;-58
2024/01/20 01:54:23;;;;;;;25.20;9.60;;;;;;;;;;5032625;28;20049;-58
2024/01/20 01:56:54;;;;;;;32.30;9.45;;;;;;;;;;5011628;28;20060;-59
2024/01/20 01:59:20;;;;;;;22.38;7.30;;;;;;;;;;5046879;28;20492;-59
2024/01/20 02:01:47;;;;;;;22.05;7.63;;;;;;;;;;5014506;28;20231;-59
2024/01/20 02:04:14;;;;;;;28.33;8.13;;;;;;;;;;5019503;28;20081;-59
2024/01/20 02:06:41;;;;;;;23.80;8.23;;;;;;;;;;5008444;28;20053;-59
2024/01/20 02:09:10;;;;;;;26.80;9.40;;;;;;;;;;5008589;28;20045;-58
2024/01/20 02:11:36;;;;;;;;;;;;;;;;;;5025833;28;20046;-59
2024/01/20 02:14:05;;;;;;;26.17;8.05;;;;;;;;;;5011117;28;19925;-58
2024/01/20 02:16:31;;;;;;;18.25;6.43;;;;;;;;;;5014524;28;20117;-59
2024/01/20 02:19:02;;;;;;;26.40;8.30;;;;;;;;;;5029836;28;20057;-59
2024/01/20 02:21:29;;;;;;;26.40;7.88;;;;;;;;;;5014918;28;20531;-59
2024/01/20 02:24:00;;;;;;;27.73;8.77;;;;;;;;;;5007113;28;20061;-59
2024/01/20 02:26:29;;;;;;;27.30;8.75;;;;;;;;;;5026956;28;20056;-59
2024/01/20 02:28:56;;;;;;;27.25;8.95;;;;;;;;;;5015533;28;20053;-59
2024/01/20 02:31:23;;;;;;;27.13;9.18;;;;;;;;;;5013324;28;20056;-59
2024/01/20 02:33:50;;;;;;;23.75;8.32;;;;;;;;;;5013642;28;20050;-59
2024/01/20 02:36:17;;;;;;;22.83;7.30;;;;;;;;;;5004461;28;20127;-58
2024/01/20 02:38:43;;;;;;;22.08;6.75;;;;;;;;;;5014176;28;20045;-58
2024/01/20 02:41:14;;;;;;;19.60;6.80;;;;;;;;;;5013866;28;20069;-59
2024/01/20 02:43:40;;;;;;;19.55;7.30;;;;;;;;;;5009463;28;20054;-59
2024/01/20 02:46:07;;;;;;;23.80;8.02;;;;;;;;;;5009008;28;20065;-59
2024/01/20 02:48:34;;;;;;;26.50;8.38;;;;;;;;;;5025428;28;20175;-59
2024/01/20 02:51:01;;;;;;;17.42;7.13;;;;;;;;;;5013190;28;20037;-59
2024/01/20 02:53:28;;;;;;;24.33;7.82;;;;;;;;;;5033045;28;20077;-58
2024/01/20 02:55:54;;;;;;;23.33;6.63;;;;;;;;;;5022691;28;20053;-59
2024/01/20 02:58:22;;;;;;;22.90;7.78;;;;;;;;;;5014161;28;20061;-59
2024/01/20 03:00:50;;;;;;;22.80;8.40;;;;;;;;;;5024108;28;20047;-59
2024/01/20 03:03:17;;;;;;;22.27;6.97;;;;;;;;;;5025845;28;20135;-59
2024/01/20 03:05:44;;;;;;;28.63;7.88;;;;;;;;;;5012735;28;20081;-57
2024/01/20 03:08:14;;;;;;;25.98;8.40;;;;;;;;;;5013400;28;20049;-58
2024/01/20 03:10:41;;;;;;;25.92;8.65;;;;;;;;;;5042974;28;20092;-59
2024/01/20 03:13:14;;;;;;;15.00;5.22;;;;;;;;;;5017102;28;20131;-58
2024/01/20 03:15:42;;;;;;;19.38;7.13;;;;;;;;;;5002003;28;20041;-59
2024/01/20 03:18:11;;;;;;;19.20;6.78;;;;;;;;;;5039680;28;20050;-59
2024/01/20 03:20:38;;;;;;;28.45;7.25;;;;;;;;;;5028735;28;20037;-58
2024/01/20 03:23:06;;;;;;;18.00;6.10;;;;;;;;;;5013648;28;20057;-58
2024/01/20 03:25:33;;;;;;;24.40;7.65;;;;;;;;;;5009953;28;20085;-56
2024/01/20 03:28:00;;;;;;;28.33;7.70;;;;;;;;;;5010723;28;20046;-58
2024/01/20 03:30:26;;;;;;;23.15;8.15;;;;;;;;;;5011041;28;20083;-58
2024/01/20 03:32:55;;;;;;;20.42;7.28;;;;;;;;;;5016179;28;20103;-59
2024/01/20 03:35:22;;;;;;;24.70;7.38;;;;;;;;;;5015415;28;20119;-57
2024/01/20 03:37:49;;;;;;;18.70;6.85;;;;;;;;;;5042299;28;20043;-58
2024/01/20 03:40:16;;;;;;;18.33;6.38;;;;;;;;;;5027643;28;20057;-59
2024/01/20 03:42:45;;;;;;;23.33;6.78;;;;;;;;;;5026150;28;20049;-58
2024/01/20 03:45:14;;;;;;;21.60;6.53;;;;;;;;;;5019875;28;20105;-60
2024/01/20 03:47:41;;;;;;;21.90;8.00;;;;;;;;;;5014820;28;20091;-60
2024/01/20 03:50:10;;;;;;;17.38;5.80;;;;;;;;;;5024642;28;20885;-60
2024/01/20 03:52:37;;;;;;;21.23;7.78;;;;;;;;;;5051997;28;20122;-60
2024/01/20 03:55:04;;;;;;;25.67;8.43;;;;;;;;;;5020962;28;20049;-60
2024/01/20 03:57:31;;;;;;;24.45;7.40;;;;;;;;;;5019072;28;20058;-59
2024/01/20 03:59:57;;;;;;;17.73;6.85;;;;;;;;;;5022743;28;20071;-59
2024/01/20 04:02:24;;;;;;;21.38;7.20;;;;;;;;;;5011263;28;20053;-60
2024/01/20 04:04:51;;;;;;;19.75;6.53;;;;;;;;;;5013561;28;20107;-59
2024/01/20 04:07:20;;;;;;;21.45;7.35;;;;;;;;;;5029755;28;20049;-59
2024/01/20 04:09:47;;;;;;;18.08;6.72;;;;;;;;;;5017266;28;20068;-60
2024/01/20 04:12:14;;;;;;;18.65;6.05;;;;;;;;;;5015884;28;20057;-59
2024/01/20 04:14:41;;;;;;;27.27;6.95;;;;;;;;;;5028546;28;20232;-58
2024/01/20 04:17:08;;;;;;;22.80;7.13;;;;;;;;;;5033026;28;20061;-56
2024/01/20 04:19:34;;;;;;;17.92;5.63;;;;;;;;;;5017378;28;20041;-59
2024/01/20 04:22:01;;;;;;;18.90;6.90;;;;;;;;;;5027810;28;20057;-58
2024/01/20 04:24:29;;;;;;;22.45;7.32;;;;;;;;;;5024883;28;20093;-60
2024/01/20 04:26:56;;;;;;;23.83;6.72;;;;;;;;;;5020005;28;20064;-59
2024/01/20 04:29:23;;;;;;;20.95;6.13;;;;;;;;;;5022500;28;20080;-58
2024/01/20 04:31:50;;;;;;;17.67;6.07;;;;;;;;;;5051180;28;20554;-59
2024/01/20 04:34:17;;;;;;;15.88;6.22;;;;;;;;;;5013046;28;20045;-59
2024/01/20 04:36:43;;;;;;;14.68;4.97;;;;;;;;;;5011747;28;20041;-59
2024/01/20 04:39:10;;;;;;;22.52;6.70;;;;;;;;;;5015263;28;20060;-57
2024/01/20 04:41:38;;;;;;;16.55;5.47;;;;;;;;;;5018873;28;20045;-58
2024/01/20 04:44:07;;;;;;;15.98;6.72;;;;;;;;;;5019075;28;20137;-59
2024/01/20 04:46:34;;;;;;;18.55;6.07;;;;;;;;;;5042965;28;20045;-58
2024/01/20 04:49:01;;;;;;;16.23;6.07;;;;;;;;;;5030841;28;20060;-58
2024/01/20 04:51:28;;;;;;;22.92;6.43;;;;;;;;;;5015833;28;20060;-57
2024/01/20 04:53:54;;;;;;;23.88;7.57;;;;;;;;;;5037944;28;20053;-59
2024/01/20 04:56:22;;;;;;;16.00;5.97;;;;;;;;;;5017807;28;20066;-59
2024/01/20 04:58:51;;;;;;;27.13;7.23;;;;;;;;;;5014323;28;20054;-59
2024/01/20 05:01:17;;;;;;;;;;;;;;;;;;5020442;28;20049;-60
2024/01/20 05:03:45;;;;;;;17.48;5.30;;;;;;;;;;5014018;28;19925;-59
2024/01/20 05:06:12;;;;;;;19.63;5.80;;;;;;;;;;5032411;28;21022;-55
2024/01/20 05:08:39;;;;;;;14.50;5.03;;;;;;;;;;5017325;28;20085;-59
2024/01/20 05:11:06;;;;;;;13.05;5.07;;;;;;;;;;5049391;28;20045;-59
2024/01/20 05:13:33;;;;;;;18.02;6.43;;;;;;;;;;5020184;28;20085;-55
2024/01/20 05:16:01;;;;;;;17.92;6.28;;;;;;;;;;5029691;28;20042;-55
2024/01/20 05:18:28;;;;;;;18.70;6.57;;;;;;;;;;5008240;28;20108;-55
2024/01/20 05:20:54;;;;;;;17.08;6.13;;;;;;;;;;5014926;28;20084;-55
2024/01/20 05:23:21;;;;;;;17.75;6.03;;;;;;;;;;5031773;28;20041;-58
2024/01/20 05:25:48;;;;;;;21.08;6.35;;;;;;;;;;5027434;28;20465;-58
2024/01/20 05:28:18;;;;;;;22.35;6.75;;;;;;;;;;5018143;28;20049;-57
2024/01/20 05:30:45;;;;;;;13.43;4.40;;;;;;;;;;5032386;28;20144;-57
2024/01/20 05:33:13;;;;;;;15.65;5.72;;;;;;;;;;5050463;28;20128;-55
2024/01/20 05:35:40;;;;;;;16.52;6.07;;;;;;;;;;5033341;28;20140;-55
2024/01/20 05:38:07;;;;;;;22.60;6.18;;;;;;;;;;5034784;28;20085;-56
2024/01/20 05:40:34;;;;;;;18.35;6.57;;;;;;;;;;5018782;28;20060;-56
2024/01/20 05:43:00;;;;;;;11.50;4.15;;;;;;;;;;5047123;28;20054;-56
2024/01/20 05:45:30;;;;;;;18.65;5.38;;;;;;;;;;5018794;28;20065;-54
2024/01/20 05:47:57;;;;;;;19.58;7.10;;;;;;;;;;5013866;28;20053;-58
2024/01/20 05:50:25;;;;;;;17.42;6.05;;;;;;;;;;5016301;28;20103;-57
2024/01/20 05:52:52;;;;;;;14.68;5.75;;;;;;;;;;5044065;28;20053;-57
2024/01/20 05:55:18;;;;;;;18.58;5.85;;;;;;;;;;5020431;28;20049;-55
2024/01/20 05:57:46;;;;;;;18.00;5.82;;;;;;;;;;5015099;28;20054;-54
2024/01/20 06:00:14;;;;;;;16.08;7.15;;;;;;;;;;5029004;28;20092;-57
2024/01/20 06:02:40;;;;;;;20.25;7.13;;;;;;;;;;5026441;28;20104;-56
2024/01/20 06:05:08;;;;;;;14.25;4.40;;;;;;;;;;5015740;28;20068;-56
2024/01/20 06:07:36;;;;;;;15.77;5.85;;;;;;;;;;5031622;28;20134;-56
2024/01/20 06:10:03;;;;;;;13.27;5.55;;;;;;;;;;5024396;28;20061;-55
2024/01/20 06:12:30;;;;;;;12.82;5.20;;;;;;;;;;5031882;28;20053;-57
2024/01/20 06:14:56;;;;;;;20.73;7.43;;;;;;;;;;5020241;28;20046;-54
2024/01/20 06:17:23;;;;;;;18.33;6.97;;;;;;;;;;5025107;28;20447;-60
2024/01/20 06:19:50;;;;;;;13.00;5.32;;;;;;;;;;5022014;28;20133;-58
2024/01/20 06:22:16;;;;;;;22.08;6.63;;;;;;;;;;5026050;28;20105;-55
2024/01/20 06:24:44;;;;;;;15.27;5.43;;;;;;;;;;5009690;28;20041;-58
2024/01/20 06:27:11;;;;;;;19.85;5.72;;;;;;;;;;5030723;28;20049;-58
2024/01/20 06:29:41;;;;;;;20.48;6.68;;;;;;;;;;5031861;28;20042;-57
2024/01/20 06:32:08;;;;;;;24.52;5.53;;;;;;;;;;5043718;28;20057;-55
2024/01/20 06:34:35;;;;;;;11.15;4.07;;;;;;;;;;5025368;28;20140;-57
2024/01/20 06:37:03;;;;;;;14.57;4.60;;;;;;;;;;5020345;28;20045;-56
2024/01/20 06:39:30;;;;;;;;;;;;;;;;;;5032137;28;20135;-58
2024/01/20 06:42:01;;;;;;;12.65;4.18;;;;;;;;;;5026290;28;19928;-59
2024/01/20 06:44:31;;;;;;;13.63;4.95;;;;;;;;;;5018492;28;20053;-56
2024/01/20 06:46:58;;;;;;;13.73;4.45;;;;;;;;;;5019545;28;20056;-60
2024/01/20 06:49:26;;;;;;;19.90;6.03;;;;;;;;;;5024101;28;20045;-55
2024/01/20 06:51:55;;;;;;;11.98;4.47;;;;;;;;;;5009115;28;20053;-57
2024/01/20 06:54:22;;;;;;;18.98;6.80;;;;;;;;;;5002430;28;20064;-58
2024/01/20 06:56:49;;;;;;;15.75;5.78;;;;;;;;;;5015733;28;20041;-58
2024/01/20 06:59:17;;;;;;;15.77;5.10;;;;;;;;;;5011516;28;20057;-59
2024/01/20 07:01:44;;;;;;;15.60;5.95;;;;;;;;;;5015045;28;20056;-57
2024/01/20 07:04:12;;;;;;;15.43;5.30;;;;;;;;;;5005882;28;20081;-55
2024/01/20 07:06:39;;;;;;;20.55;5.72;;;;;;;;;;5012847;28;21025;-58
2024/01/20 07:09:06;;;;;;;11.82;4.57;;;;;;;;;;5014870;28;20050;-57
2024/01/20 07:11:33;;;;;;;20.23;4.97;;;;;;;;;;5044823;28;20060;-57
2024/01/20 07:14:00;;;;;;;17.20;5.72;;;;;;;;;;5002679;28;20053;-56
2024/01/20 07:16:29;;;;;;;22.63;6.57;;;;;;;;;;5027502;28;20156;-58
2024/01/20 07:18:56;;;;;;;19.13;5.47;;;;;;;;;;5030218;28;20049;-57
2024/01/20 07:21:23;;;;;;;17.92;5.85;;;;;;;;;;5019381;28;20053;-57
2024/01/20 07:23:55;;;;;;;19.13;6.57;;;;;;;;;;5030189;28;20065;-57
2024/01/20 07:26:22;;;;;;;17.52;5.55;;;;;;;;;;5038238;28;20054;-57
2024/01/20 07:28:49;;;;;;;16.60;5.22;;;;;;;;;;5020247;28;20049;-56
2024/01/20 07:31:16;;;;;;;18.15;5.28;;;;;;;;;;5036127;28;20076;-57
2024/01/20 07:33:45;;;;;;;18.27;5.63;;;;;;;;;;5018505;28;20049;-57
2024/01/20 07:36:14;;;;;;;16.83;5.00;;;;;;;;;;5008244;28;20072;-58
2024/01/20 07:38:41;;;;;;;15.50;4.82;;;;;;;;;;5019304;28;20041;-57
2024/01/20 07:41:08;;;;;;;17.58;6.07;;;;;;;;;;5019535;28;20053;-57
2024/01/20 07:43:35;;;;;;;15.10;4.60;;;;;;;;;;5025153;28;20232;-57
2024/01/20 07:46:03;;;;;;;22.33;6.40;;;;;;;;;;5002031;28;20053;-59
2024/01/20 07:48:30;;;;;;;15.07;5.00;;;;;;;;;;5015949;28;20053;-56
2024/01/20 07:50:58;;;;;;;20.95;6.47;;;;;;;;;;5012993;28;20061;-59
2024/01/20 07:53:27;;;;;;;10.63;3.97;;;;;;;;;;5014317;28;20099;-59
2024/01/20 07:55:57;;;;;;;17.73;5.03;;;;;;;;;;5001110;28;20046;-60
2024/01/20 07:58:26;;;;;;;14.55;4.75;;;;;;;;;;5018695;28;20136;-55
2024/01/20 08:00:53;;;;;;;18.45;6.68;;;;;;;;;;5015785;28;20078;-55
2024/01/20 08:03:23;;;;;;;20.83;6.43;;;;;;;;;;5017508;28;20041;-56
2024/01/20 08:05:50;;;;;;;13.30;4.47;;;;;;;;;;5023596;28;20059;-60
2024/01/20 08:08:20;;;;;;;16.00;5.30;;;;;;;;;;5014677;28;20045;-56
2024/01/20 08:10:47;;;;;;;10.13;3.65;;;;;;;;;;5008506;28;20049;-57
2024/01/20 08:13:14;;;;;;;20.65;6.03;;;;;;;;;;5014786;28;20112;-55
2024/01/20 08:15:49;;;;;;;20.83;6.65;;;;;;;;;;4954944;28;20062;-56
2024/01/20 08:18:16;;;;;;;17.20;5.03;;;;;;;;;;5000173;28;20045;-58
2024/01/20 08:20:45;;;;;;;13.93;4.28;;;;;;;;;;5017378;28;20038;-58
2024/01/20 08:23:15;;;;;;;18.60;6.18;;;;;;;;;;5011959;28;20046;-57
2024/01/20 08:25:43;;;;;;;17.75;5.40;;;;;;;;;;5022122;28;20071;-58
2024/01/20 08:28:13;;;;;;;13.73;4.65;;;;;;;;;;5017109;28;20086;-56
2024/01/20 08:30:45;;;;;;;15.60;4.40;;;;;;;;;;5017386;28;20148;-58
2024/01/20 08:33:12;;;;;;;15.00;4.57;;;;;;;;;;5045986;28;20050;-56
2024/01/20 08:35:39;;;;;;;21.92;6.10;;;;;;;;;;4994382;28;20053;-58
2024/01/20 08:38:08;;;;;;;23.90;7.53;;;;;;;;;;5008945;28;20045;-53
2024/01/20 08:40:37;;;;;;;12.68;4.60;;;;;;;;;;5026477;28;20041;-58
2024/01/20 08:43:07;;;;;;;11.27;3.40;;;;;;;;;;5008577;28;20058;-57
2024/01/20 08:45:34;;;;;;;10.55;4.20;;;;;;;;;;4997227;28;20057;-56
2024/01/20 08:48:02;;;;;;;17.58;6.57;;;;;;;;;;5005796;28;20107;-59
2024/01/20 08:50:32;;;;;;;16.92;5.28;;;;;;;;;;5021030;28;20052;-55
2024/01/20 08:52:59;;;;;;;17.23;4.18;;;;;;;;;;5009690;28;20061;-56
2024/01/20 08:55:26;;;;;;;15.85;4.28;;;;;;;;;;5033005;28;20050;-56
2024/01/20 08:57:56;;;;;;;13.95;4.38;;;;;;;;;;5005790;28;20057;-59
2024/01/20 09:00:24;;;;;;;15.35;4.75;;;;;;;;;;5015005;28;20049;-56
2024/01/20 09:02:54;;;;;;;17.48;6.07;;;;;;;;;;5001090;28;20077;-58
2024/01/20 09:05:21;;;;;;;12.60;4.35;;;;;;;;;;4990948;28;20076;-57
2024/01/20 09:07:53;;;;;;;20.20;6.55;;;;;;;;;;5015160;28;20048;-54
2024/01/20 09:10:21;;;;;;;20.45;6.32;;;;;;;;;;5040827;28;20167;-56
2024/01/20 09:12:48;;;;;;;11.82;4.45;;;;;;;;;;5016491;28;20050;-58
2024/01/20 09:15:17;;;;;;;12.23;4.93;;;;;;;;;;5018939;28;20052;-57
2024/01/20 09:17:46;;;;;;;12.82;5.15;;;;;;;;;;5017058;28;20123;-54
2024/01/20 09:20:18;;;;;;;11.73;4.45;;;;;;;;;;5037706;28;20053;-56
2024/01/20 09:22:46;;;;;;;12.00;4.10;;;;;;;;;;5037514;28;20053;-58
2024/01/20 09:25:13;;;;;;;15.67;5.70;;;;;;;;;;4976222;28;20062;-59
2024/01/20 09:27:42;;;;;;;19.63;6.28;;;;;;;;;;5005411;28;20041;-58
2024/01/20 09:30:10;;;;;;;17.02;6.03;;;;;;;;;;5012168;28;20048;-59
2024/01/20 09:32:37;;;;;;;12.45;4.32;;;;;;;;;;5040815;28;20069;-59
2024/01/20 09:35:09;;;;;;;15.23;5.20;;;;;;;;;;4964036;28;20392;-58
2024/01/20 09:37:37;;;;;;;20.63;5.63;;;;;;;;;;5010640;28;20060;-59
2024/01/20 09:40:08;;;;;;;12.32;3.55;;;;;;;;;;5031400;28;20061;-59
2024/01/20 09:42:37;;;;;;;14.27;5.55;;;;;;;;;;5013515;28;20133;-59
2024/01/20 09:45:05;;;;;;;10.40;3.90;;;;;;;;;;5005815;28;20079;-59
2024/01/20 09:47:31;;;;;;;15.20;5.47;;;;;;;;;;5021538;28;20216;-59
2024/01/20 09:49:59;;;;;;;23.75;6.78;;;;;;;;;;5008303;28;20045;-57
2024/01/20 09:52:28;;;;;;;15.00;5.00;;;;;;;;;;5022554;28;20049;-59
2024/01/20 09:55:08;;;;;;;19.83;6.47;;;;;;;;;;4975840;28;20052;-58
2024/01/20 09:57:37;;;;;;;15.07;5.18;;;;;;;;;;5022033;28;20060;-59
2024/01/20 10:00:09;;;;;;;18.40;5.55;;;;;;;;;;5020457;28;20053;-58
2024/01/20 10:02:40;;;;;;;16.52;5.65;;;;;;;;;;5012799;28;20128;-59
2024/01/20 10:05:10;;;;;;;16.88;6.32;;;;;;;;;;4993267;28;20052;-58
2024/01/20 10:07:39;;;;;;;20.15;5.35;;;;;;;;;;5021411;28;20042;-58
2024/01/20 10:10:09;;;;;;;11.90;4.22;;;;;;;;;;5017741;28;20038;-57
2024/01/20 10:12:37;;;;;;;18.00;6.30;;;;;;;;;;5046249;28;20049;-60
2024/01/20 10:15:04;;;;;;;21.52;6.80;;;;;;;;;;4998817;28;20049;-60
2024/01/20 10:17:39;;;;;;;12.83;4.97;;;;;;;;;;5019537;28;20049;-59
2024/01/20 10:20:09;;;;;;;17.85;6.68;;;;;;;;;;5008791;28;20288;-56
2024/01/20 10:22:39;;;;;;;15.48;5.22;;;;;;;;;;5013671;28;20059;-59
2024/01/20 10:25:09;;;;;;;16.33;5.80;;;;;;;;;;4980215;28;20072;-58
2024/01/20 10:27:39;;;;;;;17.70;5.03;;;;;;;;;;5023657;28;20049;-58
2024/01/20 10:30:10;;;;;;;16.75;6.70;;;;;;;;;;5024866;28;20045;-59
2024/01/20 10:32:40;;;;;;;15.27;5.50;;;;;;;;;;5014779;28;20122;-60
2024/01/20 10:35:08;;;;;;;24.88;6.03;;;;;;;;;;5000583;28;20089;-60
2024/01/20 10:37:40;;;;;;;15.48;5.95;;;;;;;;;;5014520;28;20270;-59
2024/01/20 10:40:13;;;;;;;20.55;7.70;;;;;;;;;;5009460;28;20053;-59
2024/01/20 10:42:44;;;;;;;13.40;5.32;;;;;;;;;;5031812;28;20080;-60
2024/01/20 10:45:17;;;;;;;20.35;5.80;;;;;;;;;;5034941;28;20050;-60
2024/01/20 10:47:59;;;;;;;20.20;6.13;;;;;;;;;;5015833;28;20053;-60
2024/01/20 10:50:29;;;;;;;13.70;5.28;;;;;;;;;;5017098;28;20080;-60
2024/01/20 10:52:59;;;;;;;23.08;5.88;;;;;;;;;;5049006;28;20159;-61
2024/01/20 10:55:29;;;;;;;12.68;4.38;;;;;;;;;;5028504;28;20062;-59
2024/01/20 10:57:58;;;;;;;23.65;8.40;;;;;;;;;;5006579;28;20060;-59
2024/01/20 11:00:25;;;;;;;14.02;4.53;;;;;;;;;;5029321;28;20143;-59
2024/01/20 11:02:52;;;;;;;16.02;5.53;;;;;;;;;;5003517;28;20061;-60
2024/01/20 11:05:22;;;;;;;24.35;7.75;;;;;;;;;;4987982;28;20058;-59
2024/01/20 11:08:03;;;;;;;18.10;6.82;;;;;;;;;;5013715;28;20041;-60
2024/01/20 11:10:30;;;;;;;20.80;6.22;;;;;;;;;;5013271;28;20060;-60
2024/01/20 11:13:01;;;;;;;18.52;6.00;;;;;;;;;;5015135;28;20042;-60
2024/01/20 11:15:31;;;;;;;13.90;5.22;;;;;;;;;;4992118;28;20049;-60
2024/01/20 11:17:57;;;;;;;21.17;6.93;;;;;;;;;;5018015;28;20041;-60
2024/01/20 11:20:26;;;;;;;16.52;6.32;;;;;;;;;;5015316;28;20550;-61
2024/01/20 11:22:53;;;;;;;;;;;;;;;;;;5031387;28;20053;-60
2024/01/20 11:25:24;;;;;;;15.13;5.25;;;;;;;;;;4958278;28;19925;-60
2024/01/20 11:27:54;;;;;;;13.82;5.00;;;;;;;;;;5005932;28;20049;-61
2024/01/20 11:30:30;;;;;;;20.17;6.70;;;;;;;;;;5017230;28;20045;-61
2024/01/20 11:32:58;;;;;;;14.82;6.00;;;;;;;;;;5015249;28;20046;-62
2024/01/20 11:35:29;;;;;;;17.27;6.40;;;;;;;;;;4994303;28;20085;-61
2024/01/20 11:37:57;;;;;;;17.80;6.05;;;;;;;;;;5007974;28;20042;-63
2024/01/20 11:40:25;;;;;;;17.52;6.15;;;;;;;;;;5014064;28;20129;-59
2024/01/20 11:42:52;;;;;;;18.83;6.40;;;;;;;;;;5012622;28;20050;-60
2024/01/20 11:45:19;;;;;;;18.27;6.60;;;;;;;;;;5026365;28;20157;-61
2024/01/20 11:47:52;;;;;;;19.63;6.75;;;;;;;;;;5007105;28;20080;-60
2024/01/20 11:50:19;;;;;;;17.55;6.35;;;;;;;;;;5040522;28;20053;-60
2024/01/20 11:52:49;;;;;;;22.40;7.80;;;;;;;;;;5024308;28;20144;-60
2024/01/20 11:55:16;;;;;;;15.90;5.50;;;;;;;;;;5008441;28;20056;-60
2024/01/20 11:57:45;;;;;;;18.73;6.22;;;;;;;;;;5016412;28;20061;-60
2024/01/20 12:00:14;;;;;;;17.63;6.78;;;;;;;;;;5040565;28;20038;-60
2024/01/20 12:02:46;;;;;;;12.55;3.47;;;;;;;;;;5002355;28;20053;-60
2024/01/20 12:05:13;;;;;;;21.65;7.43;;;;;;;;;;4959377;28;20064;-60
2024/01/20 12:07:40;;;;;;;16.17;5.50;;;;;;;;;;5011684;28;20046;-61
2024/01/20 12:10:08;;;;;;;13.13;4.30;;;;;;;;;;5019781;28;20076;-60
2024/01/20 12:12:35;;;;;;;11.60;3.17;;;;;;;;;;5015115;28;20077;-60
2024/01/20 12:15:07;;;;;;;16.80;5.53;;;;;;;;;;5006742;28;20164;-60
2024/01/20 12:17:34;;;;;;;15.05;5.65;;;;;;;;;;5013488;28;20053;-61
2024/01/20 12:20:03;;;;;;;17.52;6.90;;;;;;;;;;5002133;28;20128;-61
2024/01/20 12:22:32;;;;;;;11.65;4.18;;;;;;;;;;5022114;28;20046;-60
2024/01/20 12:24:59;;;;;;;19.13;6.22;;;;;;;;;;4966584;28;20057;-59
2024/01/20 12:27:27;;;;;;;19.50;6.85;;;;;;;;;;5012122;28;20061;-62
2024/01/20 12:29:57;;;;;;;17.90;5.60;;;;;;;;;;4998784;28;20092;-61
2024/01/20 12:32:29;;;;;;;12.63;5.00;;;;;;;;;;5009560;28;20133;-61
2024/01/20 12:34:56;;;;;;;22.13;7.00;;;;;;;;;;4998966;28;20056;-62
2024/01/20 12:37:23;;;;;;;17.10;6.03;;;;;;;;;;5020291;28;20049;-62
2024/01/20 12:39:54;;;;;;;18.92;6.95;;;;;;;;;;5019509;28;20054;-61
2024/01/20 12:42:21;;;;;;;16.90;6.68;;;;;;;;;;5012990;28;20458;-61
2024/01/20 12:44:49;;;;;;;16.73;6.20;;;;;;;;;;4997458;28;20138;-62
2024/01/20 12:47:19;;;;;;;19.60;6.32;;;;;;;;;;5036549;28;20076;-63
2024/01/20 12:49:52;;;;;;;11.27;4.97;;;;;;;;;;5012049;28;20052;-62
2024/01/20 12:52:19;;;;;;;15.63;5.30;;;;;;;;;;5026123;28;20064;-61
2024/01/20 12:54:46;;;;;;;20.40;7.68;;;;;;;;;;4980920;28;20050;-60
2024/01/20 12:57:13;;;;;;;15.48;4.28;;;;;;;;;;5027480;28;20319;-63
2024/01/20 12:59:42;;;;;;;14.00;6.15;;;;;;;;;;5014668;28;20046;-64
2024/01/20 13:02:10;;;;;;;15.27;5.93;;;;;;;;;;5038941;28;20170;-62
2024/01/20 13:04:43;;;;;;;20.25;6.50;;;;;;;;;;5004105;28;20057;-65
2024/01/20 13:07:12;;;;;;;14.50;5.00;;;;;;;;;;5029496;28;20057;-61
2024/01/20 13:09:40;;;;;;;17.02;5.90;;;;;;;;;;5019769;28;20057;-61
2024/01/20 13:12:08;;;;;;;12.57;4.88;;;;;;;;;;4992737;28;20104;-61
2024/01/20 13:14:35;;;;;;;17.38;7.15;;;;;;;;;;5003743;28;20123;-61
2024/01/20 13:17:08;;;;;;;15.88;5.13;;;;;;;;;;5028230;28;20087;-62
2024/01/20 13:19:35;;;;;;;15.90;5.55;;;;;;;;;;5009161;28;20053;-62
2024/01/20 13:22:06;;;;;;;13.10;5.07;;;;;;;;;;5008924;28;20107;-61
2024/01/20 13:24:35;;;;;;;14.95;5.15;;;;;;;;;;4979392;28;20098;-62
2024/01/20 13:27:02;;;;;;;12.30;4.38;;;;;;;;;;5013248;28;20135;-62
2024/01/20 13:29:29;;;;;;;13.18;4.78;;;;;;;;;;5016237;28;20064;-61
2024/01/20 13:31:56;;;;;;;14.65;5.25;;;;;;;;;;5002107;28;20046;-61
2024/01/20 13:34:26;;;;;;;12.18;4.50;;;;;;;;;;5021134;28;20049;-62
2024/01/20 13:36:56;;;;;;;15.77;5.70;;;;;;;;;;4953484;28;20046;-62
2024/01/20 13:39:22;;;;;;;19.85;6.65;;;;;;;;;;5036599;28;20061;-63
2024/01/20 13:42:23;;;;;;;16.58;6.18;;;;;;;;;;5019983;28;20116;-62
2024/01/20 13:44:54;;;;;;;15.55;5.53;;;;;;;;;;5006086;28;21181;-62
2024/01/20 13:47:22;;;;;;;14.15;4.93;;;;;;;;;;5023514;28;20174;-62
2024/01/20 13:49:54;;;;;;;13.48;5.05;;;;;;;;;;5013703;28;20049;-62
2024/01/20 13:52:23;;;;;;;15.63;5.03;;;;;;;;;;5005593;28;20183;-61
2024/01/20 13:54:50;;;;;;;16.00;4.70;;;;;;;;;;5003961;28;20057;-62
2024/01/20 13:57:17;;;;;;;15.43;5.63;;;;;;;;;;5039508;28;20170;-61
2024/01/20 13:59:47;;;;;;;18.60;6.22;;;;;;;;;;5009082;28;20050;-63
2024/01/20 14:02:15;;;;;;;15.70;5.30;;;;;;;;;;5003716;28;20062;-63
2024/01/20 14:04:45;;;;;;;;;;;;;;;;;;5009157;28;20109;-61
2024/01/20 14:07:12;;;;;;;19.45;6.68;;;;;;;;;;5001402;28;20016;-63
2024/01/20 14:09:39;;;;;;;16.85;4.60;;;;;;;;;;5011434;28;20109;-62
2024/01/20 14:12:08;;;;;;;14.63;5.10;;;;;;;;;;5002342;28;20210;-62
2024/01/20 14:14:35;;;;;;;15.30;4.32;;;;;;;;;;5035961;28;20132;-62
2024/01/20 14:17:05;;;;;;;11.75;4.68;;;;;;;;;;5008044;28;20053;-62
2024/01/20 14:19:41;;;;;;;15.27;5.38;;;;;;;;;;5034906;28;20049;-63
2024/01/20 14:22:09;;;;;;;15.20;4.85;;;;;;;;;;5030953;28;20147;-62
2024/01/20 14:24:37;;;;;;;14.32;4.97;;;;;;;;;;4998473;28;20121;-61
2024/01/20 14:27:05;;;;;;;15.25;5.55;;;;;;;;;;5006582;28;20095;-63
2024/01/20 14:29:38;;;;;;;14.40;5.82;;;;;;;;;;5016695;28;20049;-63
2024/01/20 14:32:06;;;;;;;16.27;4.50;;;;;;;;;;5007503;28;20057;-63
2024/01/20 14:34:34;;;;;;;16.75;5.82;;;;;;;;;;5006969;28;20052;-62
2024/01/20 14:37:09;;;;;;;15.10;4.63;;;;;;;;;;5018693;28;20119;-62